createdAt,value
2019-01-21T05:11:14.547Z,57.67
2019-01-21T05:14:55.323Z,54.27
2019-01-21T05:18:09.034Z,56.43
2019-01-21T05:21:06.383Z,54.83
2019-01-21T05:23:58.093Z,53.47
2019-01-21T05:27:17.469Z,50.80
2019-01-21T05:30:42.587Z,53.23
2019-01-21T05:33:57.672Z,56.23
2019-01-21T05:36:53.216Z,51.70
2019-01-21T05:39:49.692Z,52.00
2019-01-21T05:42:56.201Z,56.47
2019-01-21T05:46:03.824Z,57.93
2019-01-21T05:48:58.538Z,60.97
2019-01-21T05:52:07.407Z,66.13
2019-01-21T05:55:31.814Z,64.37
2019-01-21T05:58:50.478Z,67.60
2019-01-21T06:02:22.051Z,61.07
2019-01-21T06:05:26.206Z,60.10
2019-01-21T06:08:37.565Z,59.20
2019-01-21T06:11:23.978Z,61.00
2019-01-21T06:14:34.361Z,57.73
2019-01-21T06:17:21.587Z,57.20
2019-01-21T06:20:43.930Z,65.03
2019-01-21T06:23:49.104Z,60.43
2019-01-21T06:26:58.671Z,61.33
2019-01-21T06:29:57.081Z,60.43
2019-01-21T06:33:04.409Z,70.87
2019-01-21T06:36:18.177Z,64.97
2019-01-21T06:39:26.592Z,64.50
2019-01-21T06:42:22.530Z,60.43
2019-01-21T06:45:28.322Z,61.67
2019-01-21T06:48:52.829Z,76.70
2019-01-21T06:52:11.991Z,100.83
2019-01-21T06:55:20.735Z,67.70
2019-01-21T06:58:08.458Z,63.07
2019-01-21T07:01:18.948Z,58.77
2019-01-21T07:04:53.627Z,56.57
2019-01-21T07:07:50.199Z,54.83
2019-01-21T07:11:03.028Z,55.90
2019-01-21T07:14:14.998Z,46.43
2019-01-21T07:17:07.020Z,44.93
2019-01-21T07:20:10.980Z,43.00
2019-01-21T07:23:39.629Z,47.47
2019-01-21T07:26:26.569Z,46.70
2019-01-21T07:29:30.818Z,42.63
2019-01-21T07:32:27.505Z,45.03
2019-01-21T07:35:42.091Z,44.53
2019-01-21T07:38:37.579Z,46.57
2019-01-21T07:41:26.674Z,43.50
2019-01-21T07:44:05.021Z,40.57
2019-01-21T07:47:04.412Z,41.60
2019-01-21T07:50:16.526Z,40.67
2019-01-21T07:53:13.158Z,41.43
2019-01-21T07:55:59.699Z,37.23
2019-01-21T07:59:04.789Z,42.00
2019-01-21T08:01:40.338Z,37.70
2019-01-21T08:04:53.037Z,41.50
2019-01-21T08:07:47.723Z,42.43
2019-01-21T08:10:58.254Z,37.97
2019-01-21T08:13:39.497Z,36.40
2019-01-21T08:17:01.104Z,37.80
2019-01-21T08:19:55.995Z,40.23
2019-01-21T08:22:47.683Z,39.37
2019-01-21T08:25:33.804Z,36.90
2019-01-21T08:28:32.142Z,34.37
2019-01-21T08:32:03.565Z,35.27
2019-01-21T08:35:05.632Z,38.20
2019-01-21T08:38:06.478Z,39.63
2019-01-21T08:41:14.333Z,36.83
2019-01-21T08:44:48.860Z,37.40
2019-01-21T08:47:43.486Z,34.50
2019-01-21T08:50:24.972Z,37.40
2019-01-21T08:53:25.752Z,39.93
2019-01-21T08:56:51.216Z,38.50
2019-01-21T08:59:46.053Z,39.17
2019-01-21T09:02:52.401Z,39.40
2019-01-21T09:06:08.594Z,37.20
2019-01-21T09:09:06.825Z,39.43
2019-01-21T09:12:08.322Z,37.00
2019-01-21T09:15:24.731Z,35.43
2019-01-21T09:18:34.438Z,35.23
2019-01-21T09:21:27.105Z,36.97
2019-01-21T09:24:39.267Z,35.37
2019-01-21T09:27:26.560Z,31.07
2019-01-21T09:30:39.837Z,35.90
2019-01-21T09:33:35.259Z,38.33
2019-01-21T09:36:51.956Z,37.73
2019-01-21T09:40:02.437Z,34.60
2019-01-21T09:43:03.334Z,33.77
2019-01-21T09:46:08.025Z,36.63
2019-01-21T09:48:35.828Z,40.07
2019-01-21T09:51:07.025Z,35.40
2019-01-21T09:53:37.798Z,37.63
2019-01-21T09:56:07.899Z,35.57
2019-01-21T09:58:38.278Z,33.83
2019-01-21T10:01:09.163Z,32.50
2019-01-21T10:03:39.079Z,37.07
2019-01-21T10:06:10.435Z,34.80
2019-01-21T10:08:59.377Z,32.40
2019-01-21T10:12:14.870Z,33.93
2019-01-21T10:15:17.056Z,34.83
2019-01-21T10:18:20.708Z,32.03
2019-01-21T10:21:28.282Z,32.73
2019-01-21T10:24:20.394Z,35.83
2019-01-21T10:27:28.520Z,38.63
2019-01-21T10:30:40.546Z,31.53
2019-01-21T10:34:01.085Z,36.17
2019-01-21T10:37:25.450Z,36.83
2019-01-21T10:40:25.707Z,35.03
2019-01-21T10:43:10.506Z,31.67
2019-01-21T10:46:24.097Z,34.07
2019-01-21T10:49:30.706Z,35.20
2019-01-21T10:52:59.172Z,36.63
2019-01-21T10:55:37.704Z,36.07
2019-01-21T10:58:29.840Z,35.07
2019-01-21T11:01:46.755Z,36.00
2019-01-21T11:04:52.241Z,30.20
2019-01-21T11:08:03.855Z,33.60
2019-01-21T11:11:04.310Z,35.03
2019-01-21T11:13:55.605Z,35.07
2019-01-21T11:16:51.528Z,34.17
2019-01-21T11:19:50.690Z,37.27
2019-01-21T11:22:32.448Z,35.13
2019-01-21T11:25:46.205Z,37.33
2019-01-21T11:28:36.285Z,36.30
2019-01-21T11:31:38.112Z,37.87
2019-01-21T11:34:32.807Z,33.50
2019-01-21T11:37:27.508Z,35.43
2019-01-21T11:40:28.255Z,38.03
2019-01-21T11:43:53.582Z,35.83
2019-01-21T11:46:53.590Z,36.40
2019-01-21T11:49:31.851Z,33.03
2019-01-21T11:52:53.836Z,38.13
2019-01-21T11:55:55.085Z,33.73
2019-01-21T11:59:19.884Z,40.90
2019-01-21T12:02:24.790Z,34.20
2019-01-21T12:05:03.338Z,33.13
2019-01-21T12:08:22.942Z,35.07
2019-01-21T12:11:39.033Z,37.77
2019-01-21T12:14:31.164Z,35.60
2019-01-21T12:17:40.650Z,37.23
2019-01-21T12:20:43.789Z,34.73
2019-01-21T12:23:44.008Z,37.50
2019-01-21T12:26:43.260Z,36.27
2019-01-21T12:30:10.645Z,35.27
2019-01-21T12:33:27.360Z,35.90
2019-01-21T12:36:42.615Z,35.57
2019-01-21T12:39:56.860Z,36.50
2019-01-21T12:43:02.223Z,37.07
2019-01-21T12:46:24.973Z,34.13
2019-01-21T12:49:16.249Z,37.93
2019-01-21T12:52:01.336Z,39.90
2019-01-21T12:55:05.104Z,34.47
2019-01-21T12:57:57.766Z,38.13
2019-01-21T13:00:39.395Z,37.33
2019-01-21T13:03:18.670Z,40.47
2019-01-21T13:06:20.710Z,43.03
2019-01-21T13:09:13.824Z,38.03
2019-01-21T13:12:15.884Z,35.63
2019-01-21T13:15:15.464Z,36.20
2019-01-21T13:18:11.297Z,37.10
2019-01-21T13:21:06.603Z,38.40
2019-01-21T13:24:01.780Z,35.07
2019-01-21T13:26:53.452Z,39.13
2019-01-21T13:29:34.106Z,39.33
2019-01-21T13:32:43.339Z,38.60
2019-01-21T13:35:45.704Z,39.17
2019-01-21T13:39:09.870Z,41.33
2019-01-21T13:42:15.904Z,38.40
2019-01-21T13:45:08.677Z,37.93
2019-01-21T13:47:59.379Z,39.40
2019-01-21T13:50:38.555Z,39.93
2019-01-21T13:54:07.093Z,38.17
2019-01-21T13:56:47.105Z,39.33
2019-01-21T13:59:41.167Z,42.07
2019-01-21T14:02:51.342Z,37.27
2019-01-21T14:05:52.392Z,40.80
2019-01-21T14:08:40.469Z,38.43
2019-01-21T14:11:42.323Z,38.70
2019-01-21T14:14:44.255Z,42.43
2019-01-21T14:17:45.823Z,36.20
2019-01-21T14:20:43.608Z,39.97
2019-01-21T14:23:39.175Z,43.13
2019-01-21T14:26:40.992Z,37.77
2019-01-21T14:29:50.699Z,40.83
2019-01-21T14:32:49.210Z,40.90
2019-01-21T14:35:35.972Z,41.50
2019-01-21T14:38:40.913Z,42.37
2019-01-21T14:41:39.542Z,39.87
2019-01-21T14:44:51.457Z,39.90
2019-01-21T14:48:16.781Z,37.40
2019-01-21T14:51:41.117Z,42.33
2019-01-21T14:54:30.516Z,42.17
2019-01-21T14:57:35.664Z,44.17
2019-01-21T15:00:37.857Z,41.13
2019-01-21T15:03:45.351Z,42.27
2019-01-21T15:06:44.975Z,45.03
2019-01-21T15:10:03.576Z,46.10
2019-01-21T15:12:46.104Z,45.40
2019-01-21T15:15:58.476Z,42.87
2019-01-21T15:18:44.986Z,42.37
2019-01-21T15:21:25.166Z,45.67
2019-01-21T15:24:29.168Z,44.37
2019-01-21T15:27:40.305Z,42.47
2019-01-21T15:30:24.787Z,43.90
2019-01-21T15:33:25.595Z,45.93
2019-01-21T15:36:30.604Z,44.03
2019-01-21T15:39:35.999Z,44.80
2019-01-21T15:42:31.354Z,42.43
2019-01-21T15:45:22.375Z,43.27
2019-01-21T15:48:42.030Z,45.80
2019-01-21T15:51:50.813Z,43.40
2019-01-21T15:55:04.258Z,43.33
2019-01-21T15:57:46.683Z,45.97
2019-01-21T16:00:55.305Z,46.30
2019-01-21T16:04:07.160Z,43.20
2019-01-21T16:07:25.710Z,43.57
2019-01-21T16:10:21.497Z,43.73
2019-01-21T16:13:17.546Z,42.03
2019-01-21T16:16:35.902Z,46.70
2019-01-21T16:19:15.313Z,45.40
2019-01-21T16:22:07.007Z,43.60
2019-01-21T16:25:10.231Z,47.63
2019-01-21T16:28:35.967Z,48.80
2019-01-21T16:31:34.466Z,44.47
2019-01-21T16:34:49.888Z,46.10
2019-01-21T16:37:55.027Z,47.77
2019-01-21T16:40:45.514Z,46.00
2019-01-21T16:43:14.921Z,46.43
2019-01-21T16:45:44.118Z,45.47
2019-01-21T16:48:13.401Z,52.60
2019-01-21T16:50:42.656Z,52.30
2019-01-21T16:53:11.944Z,53.10
2019-01-21T16:55:41.281Z,52.17
2019-01-21T16:58:10.887Z,45.13
2019-01-21T17:00:40.451Z,47.47
2019-01-21T17:03:09.791Z,46.20
2019-01-21T17:05:39.280Z,44.73
2019-01-21T17:08:10.955Z,49.17
2019-01-21T17:10:40.228Z,47.90
2019-01-21T17:13:09.564Z,49.93
2019-01-21T17:15:38.842Z,47.90
2019-01-21T17:18:08.401Z,49.20
2019-01-21T17:20:38.208Z,45.67
2019-01-21T17:23:07.580Z,47.17
2019-01-21T17:25:37.001Z,47.03
2019-01-21T17:28:06.366Z,47.10
2019-01-21T17:30:35.703Z,51.20
2019-01-21T17:33:05.269Z,48.53
2019-01-21T17:35:34.568Z,47.47
2019-01-21T17:38:04.156Z,46.53
2019-01-21T17:40:33.585Z,52.43
2019-01-21T17:43:02.802Z,52.57
2019-01-21T17:45:32.069Z,48.13
2019-01-21T17:48:01.267Z,53.97
2019-01-21T17:50:30.491Z,55.33
2019-01-21T17:52:59.808Z,56.20
2019-01-21T17:55:29.064Z,56.27
2019-01-21T17:57:58.272Z,55.87
2019-01-21T18:00:27.551Z,57.37
2019-01-21T18:02:56.830Z,57.80
2019-01-21T18:05:26.106Z,55.93
2019-01-21T18:07:55.416Z,53.07
2019-01-21T18:10:24.641Z,52.73
2019-01-21T18:12:54.015Z,55.60
2019-01-21T18:15:23.346Z,55.97
2019-01-21T18:17:52.722Z,54.50
2019-01-21T18:20:25.768Z,53.23
2019-01-21T18:22:54.975Z,64.80
2019-01-21T18:25:24.371Z,56.40
2019-01-21T18:27:53.848Z,62.03
2019-01-21T18:30:26.126Z,60.13
2019-01-21T18:32:55.484Z,63.10
2019-01-21T18:35:24.893Z,59.93
2019-01-21T18:37:54.730Z,62.47
2019-01-21T18:40:24.646Z,61.63
2019-01-21T18:42:53.950Z,58.47
2019-01-21T18:45:26.341Z,59.97
2019-01-21T18:47:57.200Z,59.67
2019-01-21T18:50:26.444Z,58.90
2019-01-21T18:52:56.054Z,65.23
2019-01-21T18:55:25.274Z,59.40
2019-01-21T18:57:56.068Z,61.67
2019-01-21T19:00:27.129Z,63.07
2019-01-21T19:02:56.673Z,62.70
2019-01-21T19:05:26.535Z,70.23
2019-01-21T19:07:55.728Z,59.37
2019-01-21T19:10:25.034Z,58.07
2019-01-21T19:12:54.355Z,64.73
2019-01-21T19:15:29.315Z,62.00
2019-01-21T19:17:58.607Z,57.20
2019-01-21T19:20:27.999Z,54.03
2019-01-21T19:22:57.296Z,55.97
2019-01-21T19:25:28.125Z,60.03
2019-01-21T19:27:57.681Z,61.87
2019-01-21T19:30:28.181Z,59.07
2019-01-21T19:32:57.470Z,62.60
2019-01-21T19:35:32.503Z,58.97
2019-01-21T19:38:01.905Z,58.00
2019-01-21T19:40:32.227Z,58.93
2019-01-21T19:43:02.400Z,59.37
2019-01-21T19:45:33.156Z,60.20
2019-01-21T19:48:02.387Z,56.73
2019-01-21T19:50:31.777Z,61.60
2019-01-21T19:53:01.105Z,62.77
2019-01-21T19:55:39.172Z,65.77
2019-01-21T19:58:13.362Z,64.17
2019-01-21T20:00:43.289Z,63.13
2019-01-21T20:03:12.633Z,61.50
2019-01-21T20:05:41.970Z,63.70
2019-01-21T20:08:11.286Z,61.73
2019-01-21T20:10:41.017Z,62.03
2019-01-21T20:13:10.236Z,62.57
2019-01-21T20:15:39.556Z,63.63
2019-01-21T20:18:08.902Z,61.63
2019-01-21T20:20:40.847Z,63.27
2019-01-21T20:23:11.999Z,62.27
2019-01-21T20:25:41.741Z,66.43
2019-01-21T20:28:11.077Z,66.57
2019-01-21T20:30:40.735Z,66.60
2019-01-21T20:33:10.103Z,64.40
2019-01-21T20:35:39.620Z,70.70
2019-01-21T20:38:08.884Z,66.27
2019-01-21T20:40:38.110Z,64.67
2019-01-21T20:43:07.482Z,68.37
2019-01-21T20:45:37.147Z,69.23
2019-01-21T20:48:06.408Z,68.03
2019-01-21T20:50:35.762Z,71.03
2019-01-21T20:53:06.400Z,65.93
2019-01-21T20:55:36.046Z,64.07
2019-01-21T20:58:05.668Z,69.97
2019-01-21T21:00:35.839Z,63.40
2019-01-21T21:03:05.729Z,67.97
2019-01-21T21:05:35.120Z,65.50
2019-01-21T21:08:04.767Z,67.00
2019-01-21T21:10:34.699Z,64.73
2019-01-21T21:13:04.105Z,60.13
2019-01-21T21:15:34.420Z,65.73
2019-01-21T21:18:03.771Z,64.93
2019-01-21T21:20:33.180Z,73.13
2019-01-21T21:23:02.626Z,73.57
2019-01-21T21:25:32.259Z,71.87
2019-01-21T21:28:01.711Z,65.47
2019-01-21T21:30:33.156Z,68.87
2019-01-21T21:33:02.939Z,65.20
2019-01-21T21:35:32.615Z,69.63
2019-01-21T21:38:02.046Z,68.30
2019-01-21T21:40:31.443Z,68.83
2019-01-21T21:43:00.791Z,61.23
2019-01-21T21:45:30.186Z,65.93
2019-01-21T21:48:01.263Z,67.27
2019-01-21T21:50:32.872Z,64.87
2019-01-21T21:53:02.878Z,67.97
2019-01-21T21:55:32.922Z,64.63
2019-01-21T21:58:02.241Z,69.30
2019-01-21T22:00:31.666Z,61.20
2019-01-21T22:03:01.283Z,63.60
2019-01-21T22:05:30.666Z,61.00
2019-01-21T22:08:00.042Z,64.60
2019-01-21T22:10:30.251Z,58.20
2019-01-21T22:13:00.095Z,62.63
2019-01-21T22:15:29.598Z,62.53
2019-01-21T22:18:00.137Z,64.10
2019-01-21T22:20:29.537Z,63.57
2019-01-21T22:22:58.939Z,62.73
2019-01-21T22:25:28.314Z,63.03
2019-01-21T22:27:57.709Z,61.70
2019-01-21T22:30:28.079Z,62.90
